Time,TemperatureF,DewpointF,PressureIn,WindDirection,WindDirectionDegrees,WindSpeedMPH,WindSpeedGustMPH,Humidity,HourlyPrecipIn,Conditions,Clouds,dailyrainin,SoftwareType,DateUTC
2013-03-31 00:00:00,40.8,25.5,30.15,SW,217,0.0,1.0,54,0.00,,CLR,0.00,VWS V14.00,2013-03-31 04:00:00,
2013-03-31 00:01:00,40.6,25.7,30.15,SW,217,0.0,0.0,55,0.00,,CLR,0.00,VWS V14.00,2013-03-31 04:01:00,
2013-03-31 00:02:00,40.6,26.1,30.15,SW,217,0.0,0.0,56,0.00,,CLR,0.00,VWS V14.00,2013-03-31 04:02:00,
2013-03-31 00:04:00,40.2,25.8,30.15,SW,217,0.0,1.0,56,0.00,,CLR,0.00,VWS V14.00,2013-03-31 04:04:00,
2013-03-31 00:05:00,39.9,25.9,30.15,SW,217,0.0,1.0,57,0.00,,CLR,0.00,VWS V14.00,2013-03-31 04:05:00,
2013-03-31 00:11:00,39.1,26.4,30.15,SW,217,1.0,1.0,60,0.00,,CLR,0.00,VWS V14.00,2013-03-31 04:11:00,
2013-03-31 00:16:00,38.2,26.7,30.15,SW,224,0.0,2.0,63,0.00,,CLR,0.00,VWS V14.00,2013-03-31 04:16:00,
2013-03-31 00:21:00,37.1,27.2,30.15,SW,233,0.0,2.0,67,0.00,,CLR,0.00,VWS V14.00,2013-03-31 04:21:00,
2013-03-31 00:27:00,36.8,26.5,30.15,SW,217,0.0,2.0,66,0.00,,CLR,0.00,VWS V14.00,2013-03-31 04:27:00,
2013-03-31 00:30:00,37.0,26.7,30.15,SW,217,0.0,2.0,66,0.00,,CLR,0.00,VWS V14.00,2013-03-31 04:30:00,
2013-03-31 00:32:00,37.2,26.2,30.15,SW,217,0.0,1.0,64,0.00,,CLR,0.00,VWS V14.00,2013-03-31 04:32:00,
2013-03-31 00:37:00,37.5,26.5,30.15,SW,217,0.0,1.0,64,0.00,,CLR,0.00,VWS V14.00,2013-03-31 04:37:00,
2013-03-31 00:42:00,37.8,26.4,30.15,SSW,211,0.0,1.0,63,0.00,,CLR,0.00,VWS V14.00,2013-03-31 04:42:00,
2013-03-31 00:47:00,37.8,26.4,30.15,SSW,210,0.0,1.0,63,0.00,,CLR,0.00,VWS V14.00,2013-03-31 04:47:00,
2013-03-31 00:52:00,37.9,26.5,30.15,West,281,0.0,1.0,63,0.00,,CLR,0.00,VWS V14.00,2013-03-31 04:52:00,
2013-03-31 00:57:00,38.1,26.6,30.15,SSW,208,0.0,2.0,63,0.00,,CLR,0.00,VWS V14.00,2013-03-31 04:57:00,
2013-03-31 01:00:00,38.4,26.9,30.15,SSW,194,1.0,2.0,63,0.00,,CLR,0.00,VWS V14.00,2013-03-31 05:00:00,
2013-03-31 01:03:00,38.7,26.8,30.15,South,191,0.0,2.0,62,0.00,,CLR,0.00,VWS V14.00,2013-03-31 05:03:00,
2013-03-31 01:08:00,39.2,27.3,30.15,WSW,239,0.0,2.0,62,0.00,,CLR,0.00,VWS V14.00,2013-03-31 05:08:00,
2013-03-31 01:13:00,39.5,26.8,30.15,SW,217,1.0,2.0,60,0.00,,CLR,0.00,VWS V14.00,2013-03-31 05:13:00,
2013-03-31 01:18:00,39.6,26.9,30.15,SW,233,0.0,3.0,60,0.00,,CLR,0.00,VWS V14.00,2013-03-31 05:18:00,
2013-03-31 01:23:00,40.0,27.2,30.15,South,176,1.0,3.0,60,0.00,,CLR,0.00,VWS V14.00,2013-03-31 05:23:00,
2013-03-31 01:28:00,40.1,27.4,30.15,SW,222,1.0,3.0,60,0.00,,CLR,0.00,VWS V14.00,2013-03-31 05:28:00,
2013-03-31 01:30:00,40.1,27.3,30.15,SW,219,1.0,3.0,60,0.00,,CLR,0.00,VWS V14.00,2013-03-31 05:30:00,
2013-03-31 01:33:00,40.1,27.4,30.15,SSW,207,0.0,1.0,60,0.00,,CLR,0.00,VWS V14.00,2013-03-31 05:33:00,
2013-03-31 01:38:00,40.0,27.2,30.15,SSW,210,0.0,2.0,60,0.00,,CLR,0.00,VWS V14.00,2013-03-31 05:38:00,
2013-03-31 01:43:00,39.8,27.1,30.15,SSW,210,0.0,2.0,60,0.00,,CLR,0.00,VWS V14.00,2013-03-31 05:43:00,
2013-03-31 01:49:00,39.9,27.6,30.15,SSW,210,0.0,2.0,61,0.00,,CLR,0.00,VWS V14.00,2013-03-31 05:49:00,
2013-03-31 01:54:00,39.6,27.3,30.15,SSW,198,2.0,2.0,61,0.00,,CLR,0.00,VWS V14.00,2013-03-31 05:54:00,
2013-03-31 01:59:00,39.4,27.5,30.15,SSW,198,2.0,2.0,62,0.00,,CLR,0.00,VWS V14.00,2013-03-31 05:59:00,
2013-03-31 02:00:00,39.4,27.5,30.15,SSW,198,2.0,2.0,62,0.00,,CLR,0.00,VWS V14.00,2013-03-31 06:00:00,
2013-03-31 02:04:00,39.4,27.5,30.15,SSW,207,1.0,2.0,62,0.00,,CLR,0.00,VWS V14.00,2013-03-31 06:04:00,
2013-03-31 02:09:00,39.0,27.5,30.15,SSW,200,0.0,3.0,63,0.00,,CLR,0.00,VWS V14.00,2013-03-31 06:09:00,
2013-03-31 02:15:00,38.5,27.4,30.15,SSW,199,0.0,3.0,64,0.00,,CLR,0.00,VWS V14.00,2013-03-31 06:15:00,
2013-03-31 02:20:00,38.1,27.0,30.14,SSW,197,0.0,3.0,64,0.00,,CLR,0.00,VWS V14.00,2013-03-31 06:20:00,
2013-03-31 02:25:00,38.0,27.3,30.14,SSW,197,0.0,3.0,65,0.00,,CLR,0.00,VWS V14.00,2013-03-31 06:25:00,
2013-03-31 02:30:00,37.7,27.4,30.14,SSW,196,0.0,0.0,66,0.00,,CLR,0.00,VWS V14.00,2013-03-31 06:30:00,
2013-03-31 02:35:00,37.6,27.6,30.14,SW,231,0.0,1.0,67,0.00,,CLR,0.00,VWS V14.00,2013-03-31 06:35:00,
2013-03-31 02:41:00,37.3,27.4,30.14,SW,231,0.0,1.0,67,0.00,,CLR,0.00,VWS V14.00,2013-03-31 06:41:00,
2013-03-31 02:47:00,37.5,27.9,30.14,SSW,197,0.0,2.0,68,0.00,,CLR,0.00,VWS V14.00,2013-03-31 06:47:00,
2013-03-31 02:52:00,37.5,27.9,30.14,SSW,197,0.0,2.0,68,0.00,,CLR,0.00,VWS V14.00,2013-03-31 06:52:00,
2013-03-31 02:58:00,37.5,28.3,30.14,SSW,194,0.0,4.0,69,0.00,,CLR,0.00,VWS V14.00,2013-03-31 06:58:00,
2013-03-31 03:00:00,37.5,28.3,30.14,SSW,194,0.0,4.0,69,0.00,,CLR,0.00,VWS V14.00,2013-03-31 07:00:00,
2013-03-31 03:03:00,37.3,28.1,30.14,SW,221,0.0,2.0,69,0.00,,CLR,0.00,VWS V14.00,2013-03-31 07:03:00,
2013-03-31 03:08:00,36.8,28.0,30.14,SW,221,0.0,2.0,70,0.00,,CLR,0.00,VWS V14.00,2013-03-31 07:08:00,
2013-03-31 03:13:00,36.6,28.1,30.14,SW,221,0.0,2.0,71,0.00,,CLR,0.00,VWS V14.00,2013-03-31 07:13:00,
2013-03-31 03:18:00,36.8,28.3,30.14,SW,226,0.0,2.0,71,0.00,,CLR,0.00,VWS V14.00,2013-03-31 07:18:00,
2013-03-31 03:23:00,36.7,27.9,30.14,SW,226,0.0,2.0,70,0.00,,CLR,0.00,VWS V14.00,2013-03-31 07:23:00,
2013-03-31 03:28:00,36.4,27.9,30.14,SSW,206,1.0,2.0,71,0.00,,CLR,0.00,VWS V14.00,2013-03-31 07:28:00,
2013-03-31 03:30:00,36.4,27.9,30.14,SSW,205,0.0,2.0,71,0.00,,CLR,0.00,VWS V14.00,2013-03-31 07:30:00,
2013-03-31 03:34:00,36.4,28.2,30.13,SW,219,1.0,5.0,72,0.00,,CLR,0.00,VWS V14.00,2013-03-31 07:34:00,
2013-03-31 03:39:00,36.7,28.5,30.14,SSW,198,1.0,5.0,72,0.00,,CLR,0.00,VWS V14.00,2013-03-31 07:39:00,
2013-03-31 03:44:00,37.0,28.8,30.13,SSW,208,1.0,5.0,72,0.00,,CLR,0.00,VWS V14.00,2013-03-31 07:44:00,
2013-03-31 03:49:00,37.1,28.6,30.13,SSW,208,0.0,5.0,71,0.00,,CLR,0.00,VWS V14.00,2013-03-31 07:49:00,
2013-03-31 03:54:00,37.1,28.9,30.14,SW,217,1.0,5.0,72,0.00,,CLR,0.00,VWS V14.00,2013-03-31 07:54:00,
2013-03-31 03:59:00,37.3,28.8,30.14,SW,217,0.0,5.0,71,0.00,,CLR,0.00,VWS V14.00,2013-03-31 07:59:00,
2013-03-31 04:00:00,37.3,28.8,30.14,SW,217,0.0,5.0,71,0.00,,CLR,0.00,VWS V14.00,2013-03-31 08:00:00,
2013-03-31 04:05:00,37.3,28.8,30.14,SW,219,1.0,2.0,71,0.00,,CLR,0.00,VWS V14.00,2013-03-31 08:05:00,
2013-03-31 04:10:00,37.5,29.0,30.13,SSW,197,1.0,3.0,71,0.00,,CLR,0.00,VWS V14.00,2013-03-31 08:10:00,
2013-03-31 04:15:00,37.5,29.0,30.13,SW,214,1.0,3.0,71,0.00,,CLR,0.00,VWS V14.00,2013-03-31 08:15:00,
2013-03-31 04:20:00,37.7,29.2,30.13,SSW,203,0.0,3.0,71,0.00,,CLR,0.00,VWS V14.00,2013-03-31 08:20:00,
2013-03-31 04:25:00,37.5,29.0,30.12,SSW,203,0.0,3.0,71,0.00,,CLR,0.00,VWS V14.00,2013-03-31 08:25:00,
2013-03-31 04:30:00,36.9,28.4,30.12,SSW,203,0.0,0.0,71,0.00,,CLR,0.00,VWS V14.00,2013-03-31 08:30:00,
2013-03-31 04:36:00,36.1,28.0,30.12,SSW,203,0.0,0.0,72,0.00,,CLR,0.00,VWS V14.00,2013-03-31 08:36:00,
2013-03-31 04:41:00,35.4,27.6,30.13,SSW,203,0.0,0.0,73,0.00,,CLR,0.00,VWS V14.00,2013-03-31 08:41:00,
2013-03-31 04:46:00,34.8,27.7,30.12,SSW,203,0.0,0.0,75,0.00,,CLR,0.00,VWS V14.00,2013-03-31 08:46:00,
2013-03-31 04:51:00,34.2,27.4,30.12,SSW,203,0.0,0.0,76,0.00,,CLR,0.00,VWS V14.00,2013-03-31 08:51:00,
2013-03-31 04:57:00,33.9,27.5,30.12,SSW,203,0.0,0.0,77,0.00,,CLR,0.00,VWS V14.00,2013-03-31 08:57:00,
2013-03-31 05:00:00,33.8,27.7,30.12,SSW,203,0.0,1.0,78,0.00,,CLR,0.00,VWS V14.00,2013-03-31 09:00:00,
2013-03-31 05:02:00,33.7,27.6,30.12,SSW,202,0.0,0.0,78,0.00,,CLR,0.00,VWS V14.00,2013-03-31 09:02:00,
2013-03-31 05:07:00,33.4,27.6,30.12,SSW,203,0.0,1.0,79,0.00,,CLR,0.00,VWS V14.00,2013-03-31 09:07:00,
2013-03-31 05:12:00,33.1,27.3,30.12,SSW,203,0.0,1.0,79,0.00,,CLR,0.00,VWS V14.00,2013-03-31 09:12:00,
2013-03-31 05:17:00,32.9,27.1,30.12,SSW,205,0.0,1.0,79,0.00,,CLR,0.00,VWS V14.00,2013-03-31 09:17:00,
2013-03-31 05:22:00,32.7,27.2,30.12,SSW,203,0.0,1.0,80,0.00,,CLR,0.00,VWS V14.00,2013-03-31 09:22:00,
2013-03-31 05:27:00,32.3,26.8,30.12,SSW,203,0.0,1.0,80,0.00,,CLR,0.00,VWS V14.00,2013-03-31 09:27:00,
2013-03-31 05:30:00,32.2,27.0,30.12,SSW,203,0.0,1.0,81,0.00,,CLR,0.00,VWS V14.00,2013-03-31 09:30:00,
2013-03-31 05:33:00,32.1,27.2,30.12,SSW,205,0.0,0.0,82,0.00,,CLR,0.00,VWS V14.00,2013-03-31 09:33:00,
2013-03-31 05:38:00,32.1,26.9,30.12,SSW,205,0.0,0.0,81,0.00,,CLR,0.00,VWS V14.00,2013-03-31 09:38:00,
2013-03-31 05:43:00,32.2,27.3,30.12,SSW,205,0.0,0.0,82,0.00,,CLR,0.00,VWS V14.00,2013-03-31 09:43:00,
2013-03-31 05:48:00,32.3,27.4,30.12,SSW,205,0.0,0.0,82,0.00,,CLR,0.00,VWS V14.00,2013-03-31 09:48:00,
2013-03-31 05:53:00,32.1,27.2,30.12,SSW,205,0.0,0.0,82,0.00,,CLR,0.00,VWS V14.00,2013-03-31 09:53:00,
2013-03-31 05:59:00,32.0,27.1,30.12,SSW,205,0.0,0.0,82,0.00,,CLR,0.00,VWS V14.00,2013-03-31 09:59:00,
2013-03-31 06:00:00,32.0,27.1,30.12,SSW,205,0.0,0.0,82,0.00,,CLR,0.00,VWS V14.00,2013-03-31 10:00:00,
2013-03-31 06:04:00,32.0,27.1,30.11,SSW,206,0.0,0.0,82,0.00,,CLR,0.00,VWS V14.00,2013-03-31 10:04:00,
2013-03-31 06:09:00,31.9,27.3,30.11,SSW,205,1.0,1.0,83,0.00,,CLR,0.00,VWS V14.00,2013-03-31 10:09:00,
2013-03-31 06:14:00,31.9,27.3,30.11,SSW,205,0.0,1.0,83,0.00,,CLR,0.00,VWS V14.00,2013-03-31 10:14:00,
2013-03-31 06:19:00,31.6,26.8,30.11,SSW,205,0.0,1.0,82,0.00,,CLR,0.00,VWS V14.00,2013-03-31 10:19:00,
2013-03-31 06:24:00,31.0,26.2,30.11,SSW,206,0.0,1.0,82,0.00,,CLR,0.00,VWS V14.00,2013-03-31 10:24:00,
2013-03-31 06:29:00,30.7,26.2,30.11,SSW,205,0.0,1.0,83,0.00,,CLR,0.00,VWS V14.00,2013-03-31 10:29:00,
2013-03-31 06:30:00,30.7,26.2,30.11,SSW,205,0.0,1.0,83,0.00,,CLR,0.00,VWS V14.00,2013-03-31 10:30:00,
2013-03-31 06:34:00,30.5,26.5,30.12,SSW,205,0.0,0.0,85,0.00,,CLR,0.00,VWS V14.00,2013-03-31 10:34:00,
2013-03-31 06:40:00,30.5,26.5,30.12,SSW,205,0.0,0.0,85,0.00,,CLR,0.00,VWS V14.00,2013-03-31 10:40:00,
2013-03-31 06:45:00,30.5,26.5,30.12,SSW,205,0.0,0.0,85,0.00,,CLR,0.00,VWS V14.00,2013-03-31 10:45:00,
2013-03-31 06:50:00,30.5,26.5,30.12,SSW,206,0.0,0.0,85,0.00,,CLR,0.00,VWS V14.00,2013-03-31 10:50:00,
2013-03-31 06:55:00,30.5,26.5,30.12,SSW,206,0.0,0.0,85,0.00,,CLR,0.00,VWS V14.00,2013-03-31 10:55:00,
2013-03-31 07:00:00,30.4,26.4,30.12,SSW,205,0.0,0.0,85,0.00,,CLR,0.00,VWS V14.00,2013-03-31 11:00:00,
2013-03-31 07:06:00,30.4,26.7,30.12,SSW,205,0.0,0.0,86,0.00,,CLR,0.00,VWS V14.00,2013-03-31 11:06:00,
2013-03-31 07:12:00,30.4,26.7,30.12,SSW,205,0.0,0.0,86,0.00,,CLR,0.00,VWS V14.00,2013-03-31 11:12:00,
2013-03-31 07:17:00,30.4,26.7,30.12,SSW,205,0.0,0.0,86,0.00,,CLR,0.00,VWS V14.00,2013-03-31 11:17:00,
2013-03-31 07:23:00,30.6,26.9,30.12,SSW,205,0.0,0.0,86,0.00,,CLR,0.00,VWS V14.00,2013-03-31 11:23:00,
2013-03-31 07:28:00,30.8,27.1,30.11,SSW,205,0.0,0.0,86,0.00,,CLR,0.00,VWS V14.00,2013-03-31 11:28:00,
2013-03-31 07:30:00,31.0,27.3,30.11,SSW,205,0.0,0.0,86,0.00,,CLR,0.00,VWS V14.00,2013-03-31 11:30:00,
2013-03-31 07:33:00,31.4,27.7,30.11,SSW,205,0.0,0.0,86,0.00,,CLR,0.00,VWS V14.00,2013-03-31 11:33:00,
2013-03-31 07:38:00,31.7,27.7,30.12,SSW,205,0.0,0.0,85,0.00,,CLR,0.00,VWS V14.00,2013-03-31 11:38:00,
2013-03-31 07:43:00,32.1,28.4,30.12,SSW,205,0.0,0.0,86,0.00,,CLR,0.00,VWS V14.00,2013-03-31 11:43:00,
2013-03-31 07:49:00,32.6,28.6,30.11,SSW,205,0.0,0.0,85,0.00,,CLR,0.00,VWS V14.00,2013-03-31 11:49:00,
2013-03-31 07:54:00,33.0,28.7,30.11,SSW,205,0.0,0.0,84,0.00,,CLR,0.00,VWS V14.00,2013-03-31 11:54:00,
2013-03-31 07:59:00,33.8,29.5,30.11,SSW,205,0.0,0.0,84,0.00,,CLR,0.00,VWS V14.00,2013-03-31 11:59:00,
2013-03-31 08:00:00,34.0,29.7,30.11,SSW,205,0.0,0.0,84,0.00,,CLR,0.00,VWS V14.00,2013-03-31 12:00:00,
2013-03-31 08:04:00,35.0,30.4,30.11,SSW,206,0.0,0.0,83,0.00,,CLR,0.00,VWS V14.00,2013-03-31 12:04:00,
2013-03-31 08:09:00,36.5,31.5,30.11,SSW,205,0.0,0.0,82,0.00,,CLR,0.00,VWS V14.00,2013-03-31 12:09:00,
2013-03-31 08:14:00,38.3,31.7,30.11,SSW,205,0.0,0.0,77,0.00,,CLR,0.00,VWS V14.00,2013-03-31 12:14:00,
2013-03-31 08:20:00,39.7,32.4,30.11,SSW,205,0.0,0.0,75,0.00,,CLR,0.00,VWS V14.00,2013-03-31 12:20:00,
2013-03-31 08:25:00,40.6,33.0,30.11,SSW,205,0.0,0.0,74,0.00,,CLR,0.00,VWS V14.00,2013-03-31 12:25:00,
2013-03-31 08:30:00,41.7,33.7,30.11,SSW,205,0.0,0.0,73,0.00,,CLR,0.00,VWS V14.00,2013-03-31 12:30:00,
2013-03-31 08:35:00,42.3,33.6,30.11,SSW,206,0.0,1.0,71,0.00,,CLR,0.00,VWS V14.00,2013-03-31 12:35:00,
2013-03-31 08:40:00,42.4,34.0,30.11,SSW,205,0.0,1.0,72,0.00,,CLR,0.00,VWS V14.00,2013-03-31 12:40:00,
2013-03-31 08:45:00,42.8,34.1,30.11,ESE,121,0.0,1.0,71,0.00,,CLR,0.00,VWS V14.00,2013-03-31 12:45:00,
2013-03-31 08:51:00,43.3,34.9,30.11,SE,135,1.0,1.0,72,0.00,,CLR,0.00,VWS V14.00,2013-03-31 12:51:00,
2013-03-31 08:57:00,43.6,34.8,30.11,SE,135,1.0,1.0,71,0.00,,CLR,0.00,VWS V14.00,2013-03-31 12:57:00,
2013-03-31 09:00:00,43.7,34.6,30.11,SSW,207,0.0,2.0,70,0.00,,CLR,0.00,VWS V14.00,2013-03-31 13:00:00,
2013-03-31 09:02:00,43.9,34.8,30.11,East,82,0.0,1.0,70,0.00,,CLR,0.00,VWS V14.00,2013-03-31 13:02:00,
2013-03-31 09:07:00,44.3,34.8,30.11,West,266,0.0,2.0,69,0.00,,CLR,0.00,VWS V14.00,2013-03-31 13:07:00,
2013-03-31 09:12:00,44.5,35.0,30.10,WSW,243,0.0,2.0,69,0.00,,CLR,0.00,VWS V14.00,2013-03-31 13:12:00,
2013-03-31 09:17:00,45.3,36.1,30.10,WSW,243,0.0,2.0,70,0.00,,CLR,0.00,VWS V14.00,2013-03-31 13:17:00,
2013-03-31 09:22:00,45.9,36.0,30.10,SSE,156,0.0,2.0,68,0.00,,CLR,0.00,VWS V14.00,2013-03-31 13:22:00,
2013-03-31 09:27:00,46.4,35.7,30.10,SE,129,1.0,2.0,66,0.00,,CLR,0.00,VWS V14.00,2013-03-31 13:27:00,
2013-03-31 09:30:00,46.6,35.9,30.10,East,91,1.0,2.0,66,0.00,,CLR,0.00,VWS V14.00,2013-03-31 13:30:00,
2013-03-31 09:33:00,46.9,36.2,30.10,South,176,1.0,2.0,66,0.00,,CLR,0.00,VWS V14.00,2013-03-31 13:33:00,
2013-03-31 09:38:00,47.8,37.0,30.10,ESE,117,3.0,3.0,66,0.00,,CLR,0.00,VWS V14.00,2013-03-31 13:38:00,
2013-03-31 09:43:00,48.3,36.3,30.09,SSW,197,0.0,3.0,63,0.00,,CLR,0.00,VWS V14.00,2013-03-31 13:43:00,
2013-03-31 09:48:00,48.9,36.5,30.09,East,82,2.0,3.0,62,0.00,,CLR,0.00,VWS V14.00,2013-03-31 13:48:00,
2013-03-31 09:53:00,49.2,36.8,30.09,ESE,103,1.0,4.0,62,0.00,,CLR,0.00,VWS V14.00,2013-03-31 13:53:00,
2013-03-31 09:58:00,49.3,36.4,30.09,SE,124,1.0,4.0,61,0.00,,CLR,0.00,VWS V14.00,2013-03-31 13:58:00,
2013-03-31 10:00:00,49.4,36.9,30.08,ESE,123,1.0,4.0,62,0.00,,CLR,0.00,VWS V14.00,2013-03-31 14:00:00,
2013-03-31 10:03:00,50.1,36.8,30.08,SSE,148,5.0,5.0,60,0.00,,CLR,0.00,VWS V14.00,2013-03-31 14:03:00,
2013-03-31 10:08:00,50.8,37.0,30.08,South,183,5.0,5.0,59,0.00,,CLR,0.00,VWS V14.00,2013-03-31 14:08:00,
2013-03-31 10:14:00,51.2,35.6,30.08,South,177,4.0,8.0,55,0.00,,CLR,0.00,VWS V14.00,2013-03-31 14:14:00,
2013-03-31 10:19:00,51.7,36.1,30.08,SSE,149,6.0,8.0,55,0.00,,CLR,0.00,VWS V14.00,2013-03-31 14:19:00,
2013-03-31 10:24:00,51.8,34.8,30.08,SSE,162,6.0,8.0,52,0.00,,CLR,0.00,VWS V14.00,2013-03-31 14:24:00,
2013-03-31 10:29:00,52.1,35.5,30.08,SSE,165,4.0,8.0,53,0.00,,CLR,0.00,VWS V14.00,2013-03-31 14:29:00,
2013-03-31 10:30:00,52.2,35.6,30.08,SSE,166,5.0,8.0,53,0.00,,CLR,0.00,VWS V14.00,2013-03-31 14:30:00,
2013-03-31 10:34:00,52.5,35.4,30.07,SE,133,5.0,8.0,52,0.00,,CLR,0.00,VWS V14.00,2013-03-31 14:34:00,
2013-03-31 10:39:00,53.0,35.4,30.07,South,180,5.0,9.0,51,0.00,,CLR,0.00,VWS V14.00,2013-03-31 14:39:00,
2013-03-31 10:44:00,53.8,35.6,30.06,SE,143,4.0,9.0,50,0.00,,CLR,0.00,VWS V14.00,2013-03-31 14:44:00,
2013-03-31 10:50:00,54.3,34.5,30.06,SSE,156,4.0,11.0,47,0.00,,CLR,0.00,VWS V14.00,2013-03-31 14:50:00,
2013-03-31 10:55:00,54.8,34.4,30.06,SSE,153,6.0,11.0,46,0.00,,CLR,0.00,VWS V14.00,2013-03-31 14:55:00,
2013-03-31 11:00:00,54.9,33.4,30.05,South,176,6.0,13.0,44,0.00,,CLR,0.00,VWS V14.00,2013-03-31 15:00:00,
2013-03-31 11:05:00,55.0,32.9,30.05,SSW,197,6.0,13.0,43,0.00,,CLR,0.00,VWS V14.00,2013-03-31 15:05:00,
2013-03-31 11:11:00,55.1,31.8,30.05,South,174,7.0,18.0,41,0.00,,CLR,0.00,VWS V14.00,2013-03-31 15:11:00,
2013-03-31 11:16:00,55.3,31.4,30.04,SSE,154,7.0,18.0,40,0.00,,CLR,0.00,VWS V14.00,2013-03-31 15:16:00,
2013-03-31 11:21:00,55.6,31.1,30.04,South,170,7.0,18.0,39,0.00,,CLR,0.00,VWS V14.00,2013-03-31 15:21:00,
2013-03-31 11:26:00,55.9,32.0,30.04,SSW,193,8.0,18.0,40,0.00,,CLR,0.00,VWS V14.00,2013-03-31 15:26:00,
2013-03-31 11:30:00,56.0,31.4,30.04,SSW,198,7.0,18.0,39,0.00,,CLR,0.00,VWS V14.00,2013-03-31 15:30:00,
2013-03-31 11:32:00,56.2,32.2,30.04,SE,146,11.0,12.0,40,0.00,,CLR,0.00,VWS V14.00,2013-03-31 15:32:00,
2013-03-31 11:37:00,56.3,31.0,30.04,SE,146,13.0,13.0,38,0.00,,CLR,0.00,VWS V14.00,2013-03-31 15:37:00,
2013-03-31 11:42:00,56.2,31.0,30.03,SE,146,7.0,14.0,38,0.00,,CLR,0.00,VWS V14.00,2013-03-31 15:42:00,
2013-03-31 11:47:00,56.4,31.8,30.03,SSE,155,7.0,14.0,39,0.00,,CLR,0.00,VWS V14.00,2013-03-31 15:47:00,
2013-03-31 11:53:00,56.7,32.7,30.02,SSE,156,7.0,14.0,40,0.00,,CLR,0.00,VWS V14.00,2013-03-31 15:53:00,
2013-03-31 11:58:00,57.0,32.3,30.02,SSE,156,6.0,14.0,39,0.00,,CLR,0.00,VWS V14.00,2013-03-31 15:58:00,
2013-03-31 12:00:00,57.0,32.3,30.02,SSE,167,14.0,16.0,39,0.00,,CLR,0.00,VWS V14.00,2013-03-31 16:00:00,
2013-03-31 12:03:00,56.9,32.2,30.02,SE,142,10.0,15.0,39,0.00,,SCT120,0.00,VWS V14.00,2013-03-31 16:03:00,
2013-03-31 12:08:00,57.2,32.5,30.02,SE,129,11.0,15.0,39,0.00,,SCT120,0.00,VWS V14.00,2013-03-31 16:08:00,
2013-03-31 12:14:00,57.1,32.4,30.01,SE,132,8.0,15.0,39,0.00,,SCT120,0.00,VWS V14.00,2013-03-31 16:14:00,
2013-03-31 12:19:00,57.0,32.3,30.01,SSE,166,4.0,15.0,39,0.00,,SCT120,0.00,VWS V14.00,2013-03-31 16:19:00,
2013-03-31 12:24:00,57.2,31.8,30.00,South,174,10.0,15.0,38,0.00,,SCT120,0.00,VWS V14.00,2013-03-31 16:24:00,
2013-03-31 12:29:00,57.3,31.9,30.00,South,181,8.0,15.0,38,0.00,,SCT120,0.00,VWS V14.00,2013-03-31 16:29:00,
2013-03-31 12:30:00,57.3,31.9,30.00,SSE,167,9.0,15.0,38,0.00,,CLR,0.00,VWS V14.00,2013-03-31 16:30:00,
2013-03-31 12:34:00,57.1,31.8,30.00,SSE,155,9.0,14.0,38,0.00,,SCT120,0.00,VWS V14.00,2013-03-31 16:34:00,
2013-03-31 12:40:00,57.2,33.1,29.99,SW,235,9.0,14.0,40,0.00,,SCT120,0.00,VWS V14.00,2013-03-31 16:40:00,
2013-03-31 12:45:00,57.0,32.3,29.99,SSE,167,8.0,16.0,39,0.00,,SCT120,0.00,VWS V14.00,2013-03-31 16:45:00,
2013-03-31 12:50:00,57.1,32.4,29.99,South,187,10.0,16.0,39,0.00,,SCT120,0.00,VWS V14.00,2013-03-31 16:50:00,
2013-03-31 12:55:00,57.1,33.0,29.99,SSE,159,5.0,16.0,40,0.00,,SCT120,0.00,VWS V14.00,2013-03-31 16:55:00,
2013-03-31 13:00:00,57.3,32.6,29.99,SSE,148,7.0,12.0,39,0.00,,BKN110,0.00,VWS V14.00,2013-03-31 17:00:00,
2013-03-31 13:06:00,57.3,33.8,29.98,SSE,151,12.0,13.0,41,0.00,,BKN110,0.00,VWS V14.00,2013-03-31 17:06:00,
2013-03-31 13:12:00,57.2,34.9,29.98,South,169,11.0,19.0,43,0.00,,BKN110,0.00,VWS V14.00,2013-03-31 17:12:00,
2013-03-31 13:17:00,57.1,34.8,29.98,SSE,166,12.0,19.0,43,0.00,,BKN110,0.00,VWS V14.00,2013-03-31 17:17:00,
2013-03-31 13:22:00,57.0,34.8,29.97,SE,145,8.0,19.0,43,0.00,,BKN110,0.00,VWS V14.00,2013-03-31 17:22:00,
2013-03-31 13:27:00,56.8,35.1,29.97,South,177,6.0,19.0,44,0.00,,BKN110,0.00,VWS V14.00,2013-03-31 17:27:00,
2013-03-31 13:30:00,56.7,35.6,29.97,SSE,156,5.0,19.0,45,0.00,,CLR,0.00,VWS V14.00,2013-03-31 17:30:00,
2013-03-31 13:33:00,56.7,36.2,29.97,South,180,7.0,9.0,46,0.00,,BKN110,0.00,VWS V14.00,2013-03-31 17:33:00,
2013-03-31 13:38:00,56.4,34.8,29.97,SSW,195,8.0,11.0,44,0.00,,BKN110,0.00,VWS V14.00,2013-03-31 17:38:00,
2013-03-31 13:43:00,56.1,35.1,29.96,SSW,194,9.0,11.0,45,0.00,,BKN110,0.00,VWS V14.00,2013-03-31 17:43:00,
2013-03-31 13:48:00,56.0,35.5,29.96,SSW,193,10.0,12.0,46,0.00,,BKN110,0.00,VWS V14.00,2013-03-31 17:48:00,
2013-03-31 13:53:00,55.9,34.9,29.96,East,91,5.0,12.0,45,0.00,,BKN110,0.00,VWS V14.00,2013-03-31 17:53:00,
2013-03-31 13:58:00,55.7,35.8,29.95,SSE,165,4.0,12.0,47,0.00,,BKN110,0.00,VWS V14.00,2013-03-31 17:58:00,
2013-03-31 14:00:00,55.7,35.8,29.95,SSW,198,2.0,12.0,47,0.00,,CLR,0.00,VWS V14.00,2013-03-31 18:00:00,
2013-03-31 14:04:00,55.7,35.8,29.95,ESE,121,8.0,8.0,47,0.00,,BKN110,0.00,VWS V14.00,2013-03-31 18:04:00,
2013-03-31 14:09:00,55.7,34.7,29.94,SE,146,8.0,11.0,45,0.00,,BKN110,0.00,VWS V14.00,2013-03-31 18:09:00,
2013-03-31 14:14:00,55.8,34.2,29.94,SSE,158,8.0,14.0,44,0.00,,BKN110,0.00,VWS V14.00,2013-03-31 18:14:00,
2013-03-31 14:19:00,55.8,34.2,29.94,SSW,201,6.0,14.0,44,0.00,,BKN110,0.00,VWS V14.00,2013-03-31 18:19:00,
2013-03-31 14:24:00,56.1,34.5,29.93,SE,146,6.0,14.0,44,0.00,,BKN110,0.00,VWS V14.00,2013-03-31 18:24:00,
2013-03-31 14:30:00,56.4,34.2,29.93,SE,141,7.0,14.0,43,0.00,,BKN110,0.00,VWS V14.00,2013-03-31 18:30:00,
2013-03-31 14:35:00,56.7,35.0,29.93,SSW,194,7.0,14.0,44,0.00,,BKN110,0.00,VWS V14.00,2013-03-31 18:35:00,
2013-03-31 14:40:00,56.7,35.0,29.92,SSE,162,8.0,14.0,44,0.00,,BKN110,0.00,VWS V14.00,2013-03-31 18:40:00,
2013-03-31 14:45:00,56.5,35.4,29.92,SSW,203,6.0,15.0,45,0.00,,BKN110,0.00,VWS V14.00,2013-03-31 18:45:00,
2013-03-31 14:50:00,56.4,35.9,29.92,SE,131,4.0,15.0,46,0.00,,BKN110,0.00,VWS V14.00,2013-03-31 18:50:00,
2013-03-31 14:55:00,56.5,36.0,29.91,SE,143,10.0,15.0,46,0.00,,BKN110,0.00,VWS V14.00,2013-03-31 18:55:00,
2013-03-31 15:00:00,56.5,36.5,29.91,SSE,159,5.0,15.0,47,0.00,,CLR,0.00,VWS V14.00,2013-03-31 19:00:00,
2013-03-31 15:01:00,56.5,36.0,29.91,South,179,8.0,14.0,46,0.00,,OVC090,0.00,VWS V14.00,2013-03-31 19:01:00,
2013-03-31 15:06:00,56.4,35.3,29.91,SSE,149,6.0,14.0,45,0.00,,OVC090,0.00,VWS V14.00,2013-03-31 19:06:00,
2013-03-31 15:11:00,56.2,36.3,29.90,East,100,4.0,14.0,47,0.00,,OVC090,0.00,VWS V14.00,2013-03-31 19:11:00,
2013-03-31 15:16:00,55.7,36.3,29.90,East,91,6.0,15.0,48,0.00,,OVC090,0.00,VWS V14.00,2013-03-31 19:16:00,
2013-03-31 15:22:00,55.5,35.6,29.90,SSE,148,7.0,15.0,47,0.00,,OVC090,0.00,VWS V14.00,2013-03-31 19:22:00,
2013-03-31 15:27:00,55.6,36.8,29.89,SE,124,8.0,15.0,49,0.00,,OVC090,0.00,VWS V14.00,2013-03-31 19:27:00,
2013-03-31 15:30:00,55.6,36.8,29.90,ESE,109,5.0,15.0,49,0.00,,CLR,0.00,VWS V14.00,2013-03-31 19:30:00,
2013-03-31 15:32:00,55.6,37.3,29.89,SSW,197,8.0,11.0,50,0.00,,OVC090,0.00,VWS V14.00,2013-03-31 19:32:00,
2013-03-31 15:38:00,55.5,37.2,29.89,SSE,149,4.0,11.0,50,0.00,,OVC090,0.00,VWS V14.00,2013-03-31 19:38:00,
2013-03-31 15:43:00,55.4,37.1,29.89,SSE,165,8.0,12.0,50,0.00,,OVC090,0.00,VWS V14.00,2013-03-31 19:43:00,
2013-03-31 15:49:00,55.4,37.6,29.89,SSE,159,9.0,12.0,51,0.00,,OVC090,0.00,VWS V14.00,2013-03-31 19:49:00,
2013-03-31 15:54:00,55.4,38.1,29.89,SE,124,5.0,13.0,52,0.00,,OVC090,0.00,VWS V14.00,2013-03-31 19:54:00,
2013-03-31 15:59:00,55.1,38.3,29.89,SSE,155,7.0,14.0,53,0.00,,OVC090,0.00,VWS V14.00,2013-03-31 19:59:00,
2013-03-31 16:00:00,55.1,37.8,29.89,SW,221,6.0,14.0,52,0.00,,CLR,0.00,VWS V14.00,2013-03-31 20:00:00,
2013-03-31 16:04:00,54.7,38.4,29.88,SSE,156,13.0,14.0,54,0.00,,-RA,0.00,VWS V14.00,2013-03-31 20:04:00,
2013-03-31 16:10:00,54.2,39.8,29.88,South,174,7.0,14.0,58,0.00,,-RA,0.00,VWS V14.00,2013-03-31 20:10:00,
2013-03-31 16:15:00,53.6,39.6,29.89,South,188,14.0,16.0,59,0.00,,-RA,0.00,VWS V14.00,2013-03-31 20:15:00,
2013-03-31 16:20:00,53.1,40.4,29.89,SSE,162,6.0,16.0,62,0.00,,-RA,0.00,VWS V14.00,2013-03-31 20:20:00,
2013-03-31 16:25:00,52.5,40.7,29.88,South,172,6.0,16.0,64,0.00,,-RA,0.00,VWS V14.00,2013-03-31 20:25:00,
2013-03-31 16:30:00,51.8,40.8,29.88,South,180,12.0,13.0,66,0.00,,-RA,0.00,VWS V14.00,2013-03-31 20:30:00,
2013-03-31 16:37:00,51.0,41.6,29.87,SE,134,7.0,14.0,70,0.01,,-RA,0.01,VWS V14.00,2013-03-31 20:37:00,
2013-03-31 16:42:00,50.6,41.2,29.87,South,171,8.0,14.0,70,0.01,,-RA,0.01,VWS V14.00,2013-03-31 20:42:00,
2013-03-31 16:47:00,50.0,41.7,29.87,SSE,156,5.0,14.0,73,0.01,,-RA,0.01,VWS V14.00,2013-03-31 20:47:00,
2013-03-31 16:52:00,49.7,42.1,29.87,South,175,5.0,14.0,75,0.02,,-RA,0.02,VWS V14.00,2013-03-31 20:52:00,
2013-03-31 16:57:00,49.3,42.4,29.86,SE,146,3.0,14.0,77,0.02,,-RA,0.02,VWS V14.00,2013-03-31 20:57:00,
2013-03-31 17:00:00,49.1,42.5,29.87,South,180,5.0,14.0,78,0.02,,CLR,0.02,VWS V14.00,2013-03-31 21:00:00,
2013-03-31 17:03:00,48.9,42.3,29.86,SE,135,1.0,6.0,78,0.02,,-RA,0.02,VWS V14.00,2013-03-31 21:03:00,
2013-03-31 17:08:00,48.7,42.8,29.86,SE,128,1.0,6.0,80,0.02,,-RA,0.02,VWS V14.00,2013-03-31 21:08:00,
2013-03-31 17:14:00,48.5,42.6,29.85,ESE,117,5.0,7.0,80,0.02,,-RA,0.02,VWS V14.00,2013-03-31 21:14:00,
2013-03-31 17:19:00,48.4,43.2,29.86,ESE,117,3.0,7.0,82,0.02,,-RA,0.02,VWS V14.00,2013-03-31 21:19:00,
2013-03-31 17:24:00,48.2,43.3,29.85,ESE,114,2.0,7.0,83,0.03,,RA,0.03,VWS V14.00,2013-03-31 21:24:00,
2013-03-31 17:29:00,48.0,43.4,29.85,ESE,118,4.0,7.0,84,0.03,,RA,0.03,VWS V14.00,2013-03-31 21:29:00,
2013-03-31 17:30:00,47.9,43.3,29.85,ESE,114,4.0,7.0,84,0.03,,CLR,0.03,VWS V14.00,2013-03-31 21:30:00,
2013-03-31 17:34:00,47.6,43.0,29.85,SSE,151,4.0,6.0,84,0.04,,RA,0.04,VWS V14.00,2013-03-31 21:34:00,
2013-03-31 17:39:00,47.4,43.1,29.85,ENE,76,3.0,6.0,85,0.04,,RA,0.04,VWS V14.00,2013-03-31 21:39:00,
2013-03-31 17:45:00,47.1,43.1,29.84,ESE,110,1.0,6.0,86,0.05,,RA,0.05,VWS V14.00,2013-03-31 21:45:00,
2013-03-31 17:50:00,46.9,43.2,29.84,SE,138,3.0,6.0,87,0.06,,-RA,0.06,VWS V14.00,2013-03-31 21:50:00,
2013-03-31 17:55:00,46.7,43.3,29.84,ESE,118,4.0,8.0,88,0.07,,-RA,0.07,VWS V14.00,2013-03-31 21:55:00,
2013-03-31 18:00:00,46.5,43.4,29.84,ENE,77,6.0,7.0,89,0.06,,-RA,0.08,VWS V14.00,2013-03-31 22:00:00,
2013-03-31 18:06:00,46.4,43.6,29.83,East,89,4.0,7.0,90,0.07,,-RA,0.09,VWS V14.00,2013-03-31 22:06:00,
2013-03-31 18:11:00,46.3,43.5,29.83,SSE,152,2.0,7.0,90,0.09,,-RA,0.11,VWS V14.00,2013-03-31 22:11:00,
2013-03-31 18:16:00,46.2,43.4,29.82,ENE,60,7.0,10.0,90,0.12,,-RA,0.14,VWS V14.00,2013-03-31 22:16:00,
2013-03-31 18:21:00,46.1,43.3,29.81,ESE,113,2.0,10.0,90,0.13,,-RA,0.15,VWS V14.00,2013-03-31 22:21:00,
2013-03-31 18:26:00,46.1,43.3,29.81,ESE,115,4.0,10.0,90,0.14,,-RA,0.16,VWS V14.00,2013-03-31 22:26:00,
2013-03-31 18:30:00,46.1,43.3,29.81,East,89,1.0,10.0,90,0.14,,CLR,0.16,VWS V14.00,2013-03-31 22:30:00,
2013-03-31 18:32:00,46.1,43.3,29.81,ESE,114,4.0,4.0,90,0.13,,-RA,0.16,VWS V14.00,2013-03-31 22:32:00,
2013-03-31 18:37:00,46.0,43.2,29.80,SE,142,1.0,7.0,90,0.14,,-RA,0.17,VWS V14.00,2013-03-31 22:37:00,
2013-03-31 18:42:00,45.9,43.1,29.80,SSE,156,3.0,7.0,90,0.14,,-RA,0.17,VWS V14.00,2013-03-31 22:42:00,
2013-03-31 18:47:00,45.8,43.0,29.79,WSW,248,1.0,12.0,90,0.15,,-RA,0.18,VWS V14.00,2013-03-31 22:47:00,
2013-03-31 18:53:00,45.7,42.9,29.79,ENE,65,3.0,12.0,90,0.15,,-RA,0.18,VWS V14.00,2013-03-31 22:53:00,
2013-03-31 18:58:00,45.5,42.7,29.79,ESE,121,3.0,12.0,90,0.15,,-RA,0.18,VWS V14.00,2013-03-31 22:58:00,
2013-03-31 19:00:00,45.5,42.7,29.79,SE,127,5.0,12.0,90,0.15,,CLR,0.18,VWS V14.00,2013-03-31 23:00:00,
2013-03-31 19:03:00,45.4,42.6,29.80,ESE,108,2.0,9.0,90,0.11,,-RA,0.19,VWS V14.00,2013-03-31 23:03:00,
2013-03-31 19:08:00,45.2,42.7,29.79,ENE,63,3.0,9.0,91,0.11,,-RA,0.19,VWS V14.00,2013-03-31 23:08:00,
2013-03-31 19:14:00,45.1,42.6,29.79,NE,34,0.0,9.0,91,0.11,,-RA,0.19,VWS V14.00,2013-03-31 23:14:00,
2013-03-31 19:19:00,44.9,42.4,29.78,NNW,330,0.0,9.0,91,0.11,,-RA,0.19,VWS V14.00,2013-03-31 23:19:00,
2013-03-31 19:24:00,44.8,42.3,29.77,SSE,158,2.0,9.0,91,0.12,,-RA,0.20,VWS V14.00,2013-03-31 23:24:00,
2013-03-31 19:29:00,44.8,42.6,29.77,East,84,2.0,9.0,92,0.12,,-RA,0.20,VWS V14.00,2013-03-31 23:29:00,
2013-03-31 19:30:00,44.7,42.5,29.77,East,81,3.0,9.0,92,0.12,,CLR,0.20,VWS V14.00,2013-03-31 23:30:00,
2013-03-31 19:35:00,44.7,42.5,29.77,East,94,1.0,6.0,92,0.04,,-RA,0.20,VWS V14.00,2013-03-31 23:35:00,
2013-03-31 19:40:00,44.7,42.5,29.77,ESE,120,2.0,6.0,92,0.04,,-RA,0.20,VWS V14.00,2013-03-31 23:40:00,
2013-03-31 19:45:00,44.7,42.5,29.78,SW,221,1.0,6.0,92,0.04,,-RA,0.20,VWS V14.00,2013-03-31 23:45:00,
2013-03-31 19:50:00,44.7,42.5,29.77,East,89,1.0,6.0,92,0.04,,-RA,0.20,VWS V14.00,2013-03-31 23:50:00,
2013-03-31 19:56:00,44.7,42.5,29.76,ENE,71,1.0,6.0,92,0.04,,-RA,0.20,VWS V14.00,2013-03-31 23:56:00,
2013-03-31 20:00:00,44.8,42.6,29.77,ENE,61,2.0,6.0,92,0.05,,CLR,0.21,VWS V14.00,2013-04-01 00:00:00,
2013-03-31 20:02:00,44.8,42.6,29.76,East,97,1.0,4.0,92,0.03,,-RA,0.21,VWS V14.00,2013-04-01 00:02:00,
2013-03-31 20:07:00,44.8,42.6,29.76,NNE,28,1.0,4.0,92,0.03,,-RA,0.21,VWS V14.00,2013-04-01 00:07:00,
2013-03-31 20:12:00,44.8,42.9,29.76,ENE,76,0.0,4.0,93,0.03,,-RA,0.21,VWS V14.00,2013-04-01 00:12:00,
2013-03-31 20:17:00,44.8,42.9,29.76,NE,51,0.0,4.0,93,0.03,,-RA,0.21,VWS V14.00,2013-04-01 00:17:00,
2013-03-31 20:22:00,44.8,42.9,29.75,NE,53,0.0,4.0,93,0.04,,-RA,0.22,VWS V14.00,2013-04-01 00:22:00,
2013-03-31 20:28:00,44.8,42.9,29.76,NE,52,0.0,4.0,93,0.04,,-RA,0.22,VWS V14.00,2013-04-01 00:28:00,
2013-03-31 20:30:00,44.8,42.9,29.76,NE,53,0.0,4.0,93,0.04,,CLR,0.22,VWS V14.00,2013-04-01 00:30:00,
2013-03-31 20:33:00,44.8,42.9,29.76,NE,53,0.0,0.0,93,0.02,,-RA,0.22,VWS V14.00,2013-04-01 00:33:00,
2013-03-31 20:38:00,44.9,43.0,29.76,East,98,1.0,1.0,93,0.02,,-RA,0.22,VWS V14.00,2013-04-01 00:38:00,
2013-03-31 20:43:00,44.9,43.0,29.75,NE,42,0.0,2.0,93,0.02,,-RA,0.22,VWS V14.00,2013-04-01 00:43:00,
2013-03-31 20:48:00,45.0,43.1,29.75,ENE,65,1.0,2.0,93,0.02,,-RA,0.22,VWS V14.00,2013-04-01 00:48:00,
2013-03-31 20:54:00,45.0,43.1,29.75,ENE,65,0.0,2.0,93,0.02,,,0.22,VWS V14.00,2013-04-01 00:54:00,
2013-03-31 20:59:00,45.1,43.2,29.75,ENE,65,0.0,2.0,93,0.02,,,0.22,VWS V14.00,2013-04-01 00:59:00,
2013-03-31 21:00:00,45.1,43.2,29.75,ENE,65,0.0,2.0,93,0.02,,CLR,0.22,VWS V14.00,2013-04-01 01:00:00,
2013-03-31 21:04:00,45.0,43.1,29.75,NNE,32,1.0,1.0,93,0.01,,,0.22,VWS V14.00,2013-04-01 01:04:00,
2013-03-31 21:10:00,45.0,43.4,29.74,North,8,0.0,2.0,94,0.01,,,0.22,VWS V14.00,2013-04-01 01:10:00,
2013-03-31 21:15:00,45.0,43.4,29.74,North,357,1.0,2.0,94,0.02,,,0.23,VWS V14.00,2013-04-01 01:15:00,
2013-03-31 21:20:00,45.0,43.4,29.74,North,6,0.0,2.0,94,0.02,,,0.23,VWS V14.00,2013-04-01 01:20:00,
2013-03-31 21:25:00,44.9,43.3,29.74,North,6,0.0,2.0,94,0.02,,,0.23,VWS V14.00,2013-04-01 01:25:00,
2013-03-31 21:30:00,44.9,43.3,29.73,North,8,0.0,2.0,94,0.02,,CLR,0.23,VWS V14.00,2013-04-01 01:30:00,
2013-03-31 21:32:00,44.9,43.3,29.73,North,6,0.0,1.0,94,0.01,,,0.23,VWS V14.00,2013-04-01 01:32:00,
2013-03-31 21:37:00,44.9,43.3,29.73,North,8,0.0,1.0,94,0.01,,,0.23,VWS V14.00,2013-04-01 01:37:00,
2013-03-31 21:42:00,44.9,43.3,29.74,NNW,329,1.0,2.0,94,0.01,,-RA,0.23,VWS V14.00,2013-04-01 01:42:00,
2013-03-31 21:47:00,44.9,43.3,29.74,NNW,328,0.0,2.0,94,0.01,,-RA,0.23,VWS V14.00,2013-04-01 01:47:00,
2013-03-31 21:52:00,44.9,43.3,29.74,NNW,328,0.0,2.0,94,0.01,,-RA,0.23,VWS V14.00,2013-04-01 01:52:00,
2013-03-31 21:58:00,45.0,43.4,29.74,NNW,328,0.0,2.0,94,0.01,,-RA,0.23,VWS V14.00,2013-04-01 01:58:00,
2013-03-31 22:00:00,45.0,43.4,29.74,NNW,327,1.0,2.0,94,0.01,,CLR,0.23,VWS V14.00,2013-04-01 02:00:00,
2013-03-31 22:03:00,45.0,43.4,29.74,NNW,328,1.0,2.0,94,0.01,,-RA,0.23,VWS V14.00,2013-04-01 02:03:00,
2013-03-31 22:08:00,45.0,43.4,29.74,NNW,328,0.0,2.0,94,0.01,,-RA,0.23,VWS V14.00,2013-04-01 02:08:00,
2013-03-31 22:13:00,45.0,43.4,29.74,NNW,328,1.0,2.0,94,0.01,,-RA,0.23,VWS V14.00,2013-04-01 02:13:00,
2013-03-31 22:19:00,45.0,43.4,29.74,NNW,327,0.0,2.0,94,0.01,,-RA,0.23,VWS V14.00,2013-04-01 02:19:00,
2013-03-31 22:24:00,45.0,43.4,29.73,NNW,328,0.0,2.0,94,0.01,,,0.23,VWS V14.00,2013-04-01 02:24:00,
2013-03-31 22:29:00,45.0,43.4,29.73,NNW,328,0.0,2.0,94,0.01,,,0.23,VWS V14.00,2013-04-01 02:29:00,
2013-03-31 22:30:00,45.0,43.4,29.73,NNW,328,0.0,2.0,94,0.01,,CLR,0.23,VWS V14.00,2013-04-01 02:30:00,
2013-03-31 22:34:00,45.0,43.4,29.73,NNW,328,1.0,2.0,94,0.00,,,0.23,VWS V14.00,2013-04-01 02:34:00,
2013-03-31 22:40:00,45.1,43.5,29.72,NNE,30,0.0,2.0,94,0.00,,,0.23,VWS V14.00,2013-04-01 02:40:00,
2013-03-31 22:45:00,45.1,43.5,29.72,NNE,30,0.0,2.0,94,0.00,,,0.23,VWS V14.00,2013-04-01 02:45:00,
2013-03-31 22:50:00,45.1,43.5,29.72,NNE,30,0.0,2.0,94,0.00,,,0.23,VWS V14.00,2013-04-01 02:50:00,
2013-03-31 22:55:00,45.1,43.5,29.72,NNE,30,0.0,2.0,94,0.01,,,0.24,VWS V14.00,2013-04-01 02:55:00,
2013-03-31 23:00:00,45.1,43.5,29.72,NNE,30,0.0,2.0,94,0.01,,CLR,0.24,VWS V14.00,2013-04-01 03:00:00,
2013-03-31 23:01:00,45.1,43.5,29.72,NNE,30,0.0,0.0,94,0.01,,,0.24,VWS V14.00,2013-04-01 03:01:00,
2013-03-31 23:06:00,45.1,43.5,29.72,NNE,30,0.0,0.0,94,0.01,,,0.24,VWS V14.00,2013-04-01 03:06:00,
2013-03-31 23:11:00,45.1,43.8,29.72,NNE,30,0.0,0.0,95,0.01,,,0.24,VWS V14.00,2013-04-01 03:11:00,
2013-03-31 23:16:00,45.1,43.8,29.73,NW,312,0.0,1.0,95,0.01,,,0.24,VWS V14.00,2013-04-01 03:16:00,
2013-03-31 23:21:00,45.2,43.9,29.73,WSW,255,1.0,1.0,95,0.01,,,0.24,VWS V14.00,2013-04-01 03:21:00,
2013-03-31 23:26:00,45.1,43.8,29.72,WSW,255,0.0,1.0,95,0.01,,,0.24,VWS V14.00,2013-04-01 03:26:00,
2013-03-31 23:30:00,45.2,43.9,29.72,WSW,255,0.0,1.0,95,0.01,,CLR,0.24,VWS V14.00,2013-04-01 03:30:00,
2013-03-31 23:31:00,45.1,43.8,29.72,WSW,255,0.0,0.0,95,0.01,,,0.24,VWS V14.00,2013-04-01 03:31:00,
2013-03-31 23:37:00,45.2,43.9,29.72,WSW,255,0.0,1.0,95,0.01,,,0.24,VWS V14.00,2013-04-01 03:37:00,
2013-03-31 23:42:00,45.1,43.8,29.72,WNW,293,1.0,2.0,95,0.01,,,0.24,VWS V14.00,2013-04-01 03:42:00,
2013-03-31 23:47:00,45.2,43.9,29.72,WNW,293,0.0,2.0,95,0.01,,,0.24,VWS V14.00,2013-04-01 03:47:00,
2013-03-31 23:52:00,45.1,43.5,29.72,WNW,293,1.0,2.0,94,0.01,,,0.24,VWS V14.00,2013-04-01 03:52:00,
2013-03-31 23:57:00,45.1,43.5,29.72,WNW,291,0.0,2.0,94,0.01,,,0.24,VWS V14.00,2013-04-01 03:57:00,